Time;durP1;ratioP1;P1;durP2;ratioP2;P2;SDS_P1;SDS_P2;PMS_P1;PMS_P2;Temp;Humidity;BMP_temperature;BMP_pressure;BME280_temperature;BME280_humidity;BME280_pressure;Samples;Min_cycle;Max_cycle;Signal;HPM_P1;HPM_P2
2023/06/17 00:01:00;;;;;;;9.50;2.13;;;;;;;;;;5018630;28;20466;-84
2023/06/17 00:03:25;;;;;;;16.23;2.28;;;;;;;;;;5018904;28;20072;-81
2023/06/17 00:05:53;;;;;;;8.52;2.30;;;;;;;;;;5036447;28;20463;-81
2023/06/17 00:08:19;;;;;;;9.07;2.10;;;;;;;;;;5052263;28;20416;-81
2023/06/17 00:10:45;;;;;;;12.18;2.38;;;;;;;;;;5052215;28;20024;-82
2023/06/17 00:13:10;;;;;;;5.25;1.88;;;;;;;;;;5036517;28;20025;-81
2023/06/17 00:15:36;;;;;;;3.80;2.10;;;;;;;;;;5036191;28;20025;-82
2023/06/17 00:18:03;;;;;;;6.95;2.05;;;;;;;;;;5035292;28;20128;-82
2023/06/17 00:20:29;;;;;;;14.20;2.05;;;;;;;;;;5018764;28;20033;-82
2023/06/17 00:22:54;;;;;;;13.90;2.30;;;;;;;;;;5036658;28;20087;-82
2023/06/17 00:25:20;;;;;;;12.63;1.90;;;;;;;;;;5036283;28;20091;-81
2023/06/17 00:27:45;;;;;;;8.48;2.20;;;;;;;;;;5036203;28;20032;-82
2023/06/17 00:30:11;;;;;;;3.35;1.85;;;;;;;;;;5034728;28;20037;-82
2023/06/17 00:32:36;;;;;;;4.68;1.73;;;;;;;;;;5036461;28;20030;-82
2023/06/17 00:35:05;;;;;;;11.27;1.95;;;;;;;;;;5034995;28;20044;-82
2023/06/17 00:37:31;;;;;;;8.73;1.73;;;;;;;;;;5019167;28;20029;-82
2023/06/17 00:39:57;;;;;;;12.65;1.80;;;;;;;;;;5018718;28;20148;-82
2023/06/17 00:42:22;;;;;;;7.32;1.90;;;;;;;;;;5034827;28;20455;-82
2023/06/17 00:44:48;;;;;;;9.38;1.67;;;;;;;;;;5017832;28;20034;-82
2023/06/17 00:47:13;;;;;;;13.27;2.13;;;;;;;;;;5035839;28;20056;-82
2023/06/17 00:49:42;;;;;;;17.70;2.15;;;;;;;;;;5018290;28;20111;-81
2023/06/17 00:52:10;;;;;;;6.18;1.75;;;;;;;;;;5018389;28;20152;-82
2023/06/17 00:54:40;;;;;;;14.25;1.90;;;;;;;;;;5017992;28;20037;-81
2023/06/17 00:57:10;;;;;;;9.52;1.90;;;;;;;;;;5035661;28;20356;-81
2023/06/17 00:59:39;;;;;;;14.40;2.00;;;;;;;;;;5017677;28;20044;-82
2023/06/17 01:02:06;;;;;;;8.40;1.90;;;;;;;;;;5035465;28;20064;-82
2023/06/17 01:04:31;;;;;;;6.28;1.98;;;;;;;;;;5034259;28;20068;-81
2023/06/17 01:07:29;;;;;;;12.13;2.20;;;;;;;;;;5034392;28;20049;-82
2023/06/17 01:10:03;;;;;;;8.43;1.80;;;;;;;;;;5035545;28;20037;-82
2023/06/17 01:12:28;;;;;;;8.68;2.05;;;;;;;;;;5017765;28;20029;-82
2023/06/17 01:14:54;;;;;;;7.38;1.90;;;;;;;;;;5034629;28;20029;-82
2023/06/17 01:17:19;;;;;;;5.40;1.88;;;;;;;;;;5018105;28;20040;-82
2023/06/17 01:19:48;;;;;;;6.75;1.80;;;;;;;;;;5017648;28;20382;-82
2023/06/17 01:22:15;;;;;;;9.63;1.80;;;;;;;;;;5018346;28;20095;-82
2023/06/17 01:24:40;;;;;;;3.85;1.77;;;;;;;;;;5035050;28;20033;-82
2023/06/17 01:27:06;;;;;;;13.48;2.17;;;;;;;;;;5050379;28;20029;-82
2023/06/17 01:29:36;;;;;;;9.60;2.17;;;;;;;;;;5000961;28;20029;-82
2023/06/17 01:32:02;;;;;;;8.00;2.20;;;;;;;;;;5049731;28;20088;-82
2023/06/17 01:34:40;;;;;;;4.20;1.92;;;;;;;;;;5035233;28;20029;-82
2023/06/17 01:37:08;;;;;;;16.40;2.10;;;;;;;;;;5034849;28;20435;-82
2023/06/17 01:39:33;;;;;;;4.65;1.77;;;;;;;;;;5017267;28;20447;-82
2023/06/17 01:41:59;;;;;;;4.65;1.80;;;;;;;;;;5017482;28;20053;-82
2023/06/17 01:44:24;;;;;;;7.47;1.88;;;;;;;;;;5016833;28;20041;-82
2023/06/17 01:46:50;;;;;;;6.38;1.90;;;;;;;;;;5017136;28;20029;-82
2023/06/17 01:49:15;;;;;;;12.75;1.80;;;;;;;;;;5034712;28;20059;-82
2023/06/17 01:51:41;;;;;;;4.38;1.70;;;;;;;;;;5033439;28;20021;-82
2023/06/17 01:54:06;;;;;;;4.93;1.70;;;;;;;;;;5034802;28;20356;-82
2023/06/17 01:56:32;;;;;;;8.38;1.75;;;;;;;;;;5017203;28;20375;-82
2023/06/17 01:58:57;;;;;;;8.82;1.70;;;;;;;;;;5016936;28;20116;-82
2023/06/17 02:01:22;;;;;;;11.38;1.88;;;;;;;;;;5034349;28;20427;-82
2023/06/17 02:03:48;;;;;;;12.27;1.90;;;;;;;;;;5033259;28;20052;-82
2023/06/17 02:06:13;;;;;;;4.55;1.80;;;;;;;;;;5034427;28;20040;-82
2023/06/17 02:08:39;;;;;;;8.27;2.08;;;;;;;;;;5034398;28;20120;-82
2023/06/17 02:11:04;;;;;;;12.50;2.20;;;;;;;;;;5034347;28;20104;-82
2023/06/17 02:13:30;;;;;;;9.85;2.00;;;;;;;;;;5016760;28;20052;-82
2023/06/17 02:15:55;;;;;;;15.05;2.65;;;;;;;;;;5034353;28;20029;-81
2023/06/17 02:18:22;;;;;;;5.38;2.40;;;;;;;;;;5034298;28;20025;-82
2023/06/17 02:20:47;;;;;;;18.85;2.50;;;;;;;;;;5034560;28;20026;-82
2023/06/17 02:23:13;;;;;;;13.30;2.63;;;;;;;;;;5034175;28;20087;-82
2023/06/17 02:25:41;;;;;;;14.65;2.55;;;;;;;;;;5015721;28;20036;-82
2023/06/17 02:28:07;;;;;;;8.75;2.72;;;;;;;;;;5033991;28;20108;-82
2023/06/17 02:30:32;;;;;;;5.15;2.20;;;;;;;;;;5034122;28;20444;-82
2023/06/17 02:32:58;;;;;;;12.77;2.75;;;;;;;;;;5034144;28;20034;-82
2023/06/17 02:35:23;;;;;;;3.00;2.45;;;;;;;;;;5034633;28;20042;-82
2023/06/17 02:37:49;;;;;;;6.22;2.28;;;;;;;;;;5016353;28;20502;-81
2023/06/17 02:40:14;;;;;;;17.90;3.05;;;;;;;;;;5032881;28;20371;-82
2023/06/17 02:42:40;;;;;;;10.05;2.45;;;;;;;;;;5049296;28;20057;-82
2023/06/17 02:45:07;;;;;;;6.38;2.15;;;;;;;;;;5016259;28;20439;-81
2023/06/17 02:47:32;;;;;;;10.52;2.40;;;;;;;;;;5033958;28;20482;-82
2023/06/17 02:49:58;;;;;;;7.03;2.20;;;;;;;;;;5033985;28;20064;-81
2023/06/17 02:52:23;;;;;;;6.72;2.15;;;;;;;;;;5033903;28;20033;-81
2023/06/17 02:54:50;;;;;;;10.63;2.13;;;;;;;;;;5033900;28;20030;-82
2023/06/17 02:57:16;;;;;;;8.02;1.83;;;;;;;;;;5034135;28;20021;-81
2023/06/17 02:59:42;;;;;;;5.32;2.20;;;;;;;;;;5034083;28;20025;-82
2023/06/17 03:02:08;;;;;;;2.95;1.58;;;;;;;;;;5016525;28;20056;-81
2023/06/17 03:04:36;;;;;;;9.77;1.70;;;;;;;;;;5033703;28;20366;-81
2023/06/17 03:07:03;;;;;;;2.75;1.70;;;;;;;;;;5033788;28;20025;-82
2023/06/17 03:09:29;;;;;;;4.28;1.55;;;;;;;;;;5032361;28;20017;-81
2023/06/17 03:11:55;;;;;;;3.63;1.80;;;;;;;;;;5016198;28;20025;-81
2023/06/17 03:14:20;;;;;;;4.30;1.60;;;;;;;;;;5033639;28;20061;-81
2023/06/17 03:16:46;;;;;;;4.80;1.70;;;;;;;;;;5033984;28;20029;-82
2023/06/17 03:19:11;;;;;;;10.77;2.30;;;;;;;;;;5016499;28;20419;-82
2023/06/17 03:21:40;;;;;;;8.38;1.70;;;;;;;;;;5016049;28;20021;-82
2023/06/17 03:24:06;;;;;;;4.88;1.60;;;;;;;;;;5033757;28;20025;-82
2023/06/17 03:26:32;;;;;;;4.03;1.40;;;;;;;;;;5033626;28;20359;-83
2023/06/17 03:28:57;;;;;;;6.80;1.40;;;;;;;;;;5032388;28;20033;-82
2023/06/17 03:31:23;;;;;;;4.30;1.50;;;;;;;;;;5015970;28;20032;-82
2023/06/17 03:33:51;;;;;;;5.65;1.35;;;;;;;;;;5032409;28;20026;-83
2023/06/17 03:36:19;;;;;;;6.07;1.40;;;;;;;;;;5032903;28;20025;-82
2023/06/17 03:38:45;;;;;;;9.65;1.75;;;;;;;;;;5037405;28;20025;-83
2023/06/17 03:41:11;;;;;;;5.20;1.60;;;;;;;;;;5036161;28;20462;-82
2023/06/17 03:43:36;;;;;;;3.90;1.58;;;;;;;;;;5019448;28;20033;-82
2023/06/17 03:46:02;;;;;;;4.13;1.30;;;;;;;;;;5003539;28;20044;-82
2023/06/17 03:48:27;;;;;;;6.78;1.45;;;;;;;;;;5036937;28;20041;-82
2023/06/17 03:50:53;;;;;;;2.25;1.40;;;;;;;;;;5036931;28;20034;-81
2023/06/17 03:53:18;;;;;;;3.92;1.40;;;;;;;;;;5037030;28;20068;-82
2023/06/17 03:55:44;;;;;;;4.20;1.40;;;;;;;;;;5037030;28;20033;-82
2023/06/17 03:58:14;;;;;;;3.58;1.50;;;;;;;;;;5019181;28;20072;-83
2023/06/17 04:00:40;;;;;;;5.57;1.48;;;;;;;;;;5036499;28;20041;-81
2023/06/17 04:03:06;;;;;;;2.80;1.30;;;;;;;;;;5018847;28;20056;-81
2023/06/17 04:05:32;;;;;;;3.80;1.45;;;;;;;;;;5036454;28;20033;-81
2023/06/17 04:07:59;;;;;;;1.30;1.20;;;;;;;;;;5035048;28;20032;-81
2023/06/17 04:10:24;;;;;;;4.88;1.63;;;;;;;;;;5036582;28;20034;-80
2023/06/17 04:12:50;;;;;;;4.35;1.63;;;;;;;;;;5036393;28;20041;-80
2023/06/17 04:15:15;;;;;;;8.50;1.52;;;;;;;;;;5036373;28;20036;-80
2023/06/17 04:17:41;;;;;;;4.07;1.40;;;;;;;;;;5036375;28;20022;-80
2023/06/17 04:20:12;;;;;;;11.38;1.65;;;;;;;;;;5036349;28;20034;-80
2023/06/17 04:22:39;;;;;;;1.92;1.60;;;;;;;;;;5036005;28;20466;-80
2023/06/17 04:25:05;;;;;;;6.55;1.42;;;;;;;;;;5018557;28;20382;-83
2023/06/17 04:27:31;;;;;;;5.78;1.60;;;;;;;;;;5036321;28;20401;-82
2023/06/17 04:29:56;;;;;;;3.65;1.75;;;;;;;;;;5036143;28;20033;-83
2023/06/17 04:32:24;;;;;;;4.68;1.50;;;;;;;;;;5036209;28;20029;-80
2023/06/17 04:34:50;;;;;;;2.42;1.40;;;;;;;;;;5036135;28;20371;-80
2023/06/17 04:37:16;;;;;;;2.25;1.45;;;;;;;;;;5036019;28;20021;-80
2023/06/17 04:39:42;;;;;;;4.00;1.60;;;;;;;;;;5018330;28;20034;-80
2023/06/17 04:42:10;;;;;;;4.90;1.92;;;;;;;;;;5036003;28;20064;-82
2023/06/17 04:44:39;;;;;;;5.70;1.80;;;;;;;;;;5040814;28;20034;-82
2023/06/17 04:47:06;;;;;;;7.50;1.80;;;;;;;;;;5049664;28;20026;-82
2023/06/17 04:49:38;;;;;;;7.32;1.70;;;;;;;;;;5033478;28;20032;-82
2023/06/17 04:52:05;;;;;;;6.18;1.83;;;;;;;;;;5065451;28;20081;-82
2023/06/17 04:54:31;;;;;;;9.23;2.30;;;;;;;;;;5031259;28;20120;-82
2023/06/17 04:56:57;;;;;;;6.93;1.88;;;;;;;;;;5023462;28;20100;-83
2023/06/17 04:59:22;;;;;;;4.10;2.08;;;;;;;;;;5034404;28;20040;-83
2023/06/17 05:01:48;;;;;;;7.03;2.33;;;;;;;;;;5017992;28;20136;-82
2023/06/17 05:04:13;;;;;;;6.40;2.05;;;;;;;;;;5017912;28;20025;-83
2023/06/17 05:06:39;;;;;;;6.05;2.88;;;;;;;;;;5017887;28;20026;-82
2023/06/17 05:09:04;;;;;;;8.68;2.90;;;;;;;;;;5035425;28;20474;-83
2023/06/17 05:11:30;;;;;;;7.82;2.97;;;;;;;;;;5035510;28;20108;-83
2023/06/17 05:13:55;;;;;;;6.28;3.67;;;;;;;;;;5050744;28;20037;-82
2023/06/17 05:16:20;;;;;;;9.52;3.42;;;;;;;;;;5035283;28;20026;-82
2023/06/17 05:18:46;;;;;;;14.02;2.55;;;;;;;;;;5035629;28;20478;-83
2023/06/17 05:21:11;;;;;;;4.03;2.40;;;;;;;;;;5033766;28;20033;-83
2023/06/17 05:23:37;;;;;;;18.30;3.72;;;;;;;;;;5050701;28;20037;-83
2023/06/17 05:26:02;;;;;;;9.85;3.88;;;;;;;;;;5050619;28;20029;-83
2023/06/17 05:28:28;;;;;;;10.88;4.78;;;;;;;;;;5050392;28;20029;-83
2023/06/17 05:30:53;;;;;;;13.98;6.15;;;;;;;;;;5017557;28;20033;-83
2023/06/17 05:33:19;;;;;;;13.00;6.50;;;;;;;;;;5033751;28;20444;-83
2023/06/17 05:35:44;;;;;;;13.18;5.10;;;;;;;;;;5000947;28;20037;-83
2023/06/17 05:38:10;;;;;;;10.02;4.53;;;;;;;;;;5034789;28;20036;-80
2023/06/17 05:40:35;;;;;;;8.95;4.65;;;;;;;;;;5033755;28;20044;-82
2023/06/17 05:43:01;;;;;;;15.23;3.55;;;;;;;;;;5017277;28;20033;-83
2023/06/17 05:45:26;;;;;;;9.63;3.10;;;;;;;;;;5034671;28;20033;-83
2023/06/17 05:47:52;;;;;;;8.30;2.78;;;;;;;;;;5050028;28;20029;-83
2023/06/17 05:50:18;;;;;;;4.82;2.58;;;;;;;;;;5017015;28;20029;-83
2023/06/17 05:52:45;;;;;;;10.23;3.15;;;;;;;;;;5017064;28;20026;-82
2023/06/17 05:55:11;;;;;;;9.00;3.50;;;;;;;;;;5034515;28;20042;-83
2023/06/17 05:57:36;;;;;;;6.30;3.72;;;;;;;;;;5034845;28;20029;-83
2023/06/17 06:00:03;;;;;;;8.50;3.65;;;;;;;;;;5033437;28;20466;-83
2023/06/17 06:02:28;;;;;;;10.40;3.88;;;;;;;;;;5049885;28;20128;-83
2023/06/17 06:04:53;;;;;;;13.50;3.90;;;;;;;;;;5034019;28;20128;-84
2023/06/17 06:07:19;;;;;;;14.23;3.88;;;;;;;;;;5000575;28;20040;-83
2023/06/17 06:09:44;;;;;;;7.28;3.30;;;;;;;;;;5034294;28;20025;-82
2023/06/17 06:12:10;;;;;;;5.72;3.30;;;;;;;;;;5049560;28;20465;-81
2023/06/17 06:14:36;;;;;;;7.07;2.65;;;;;;;;;;5016729;28;20041;-82
2023/06/17 06:17:01;;;;;;;4.60;2.58;;;;;;;;;;5034161;28;20145;-81
2023/06/17 06:19:26;;;;;;;4.40;2.75;;;;;;;;;;5032821;28;20078;-82
2023/06/17 06:21:52;;;;;;;10.82;2.70;;;;;;;;;;5016595;28;20025;-81
2023/06/17 06:24:17;;;;;;;13.55;2.60;;;;;;;;;;5049523;28;20029;-82
2023/06/17 06:26:43;;;;;;;5.50;2.75;;;;;;;;;;5049569;28;20116;-82
2023/06/17 06:29:09;;;;;;;2.90;2.30;;;;;;;;;;5034343;28;20033;-82
2023/06/17 06:31:34;;;;;;;5.35;2.22;;;;;;;;;;5016550;28;20029;-81
2023/06/17 06:34:00;;;;;;;4.07;2.28;;;;;;;;;;5016440;28;20037;-82
2023/06/17 06:36:25;;;;;;;5.88;2.10;;;;;;;;;;5034151;28;20033;-82
2023/06/17 06:38:51;;;;;;;3.22;2.42;;;;;;;;;;5016470;28;20037;-82
2023/06/17 06:41:16;;;;;;;2.40;1.92;;;;;;;;;;5049378;28;20025;-84
2023/06/17 06:43:42;;;;;;;6.43;2.30;;;;;;;;;;5049158;28;20037;-83
2023/06/17 06:46:07;;;;;;;2.45;2.10;;;;;;;;;;5049271;28;20083;-84
2023/06/17 06:48:33;;;;;;;4.78;2.13;;;;;;;;;;5049144;28;20060;-83
2023/06/17 06:50:58;;;;;;;8.48;2.28;;;;;;;;;;5049348;28;20406;-83
2023/06/17 06:53:24;;;;;;;6.68;2.42;;;;;;;;;;5033928;28;20052;-83
2023/06/17 06:55:50;;;;;;;3.88;2.35;;;;;;;;;;5016312;28;20049;-83
2023/06/17 06:58:15;;;;;;;6.20;2.80;;;;;;;;;;5033098;28;20030;-83
2023/06/17 07:00:41;;;;;;;7.05;2.72;;;;;;;;;;5032756;28;20037;-83
2023/06/17 07:03:06;;;;;;;4.43;2.50;;;;;;;;;;5033405;28;20057;-83
2023/06/17 07:05:31;;;;;;;9.02;2.72;;;;;;;;;;5033814;28;20099;-83
2023/06/17 07:07:57;;;;;;;7.28;2.70;;;;;;;;;;5016279;28;20344;-83
2023/06/17 07:10:23;;;;;;;3.95;2.33;;;;;;;;;;5032707;28;20041;-83
2023/06/17 07:12:48;;;;;;;10.40;2.20;;;;;;;;;;5036703;28;20033;-83
2023/06/17 07:15:14;;;;;;;3.95;2.05;;;;;;;;;;5037844;28;20013;-83
2023/06/17 07:17:39;;;;;;;7.93;2.90;;;;;;;;;;5037408;28;20045;-82
2023/06/17 07:20:05;;;;;;;7.32;2.25;;;;;;;;;;5053599;28;20045;-83
2023/06/17 07:22:31;;;;;;;7.97;2.30;;;;;;;;;;5052910;28;20375;-82
2023/06/17 07:24:56;;;;;;;3.45;1.90;;;;;;;;;;5037460;28;20025;-82
2023/06/17 07:27:21;;;;;;;2.55;1.90;;;;;;;;;;5037595;28;20025;-81
2023/06/17 07:29:47;;;;;;;3.33;1.85;;;;;;;;;;5037478;28;20154;-81
2023/06/17 07:32:12;;;;;;;10.10;2.20;;;;;;;;;;5037230;28;20025;-81
2023/06/17 07:34:38;;;;;;;5.32;2.33;;;;;;;;;;5037394;28;20189;-78
2023/06/17 07:37:04;;;;;;;6.95;2.85;;;;;;;;;;5037634;28;20029;-81
2023/06/17 07:39:29;;;;;;;6.07;2.10;;;;;;;;;;5037593;28;20359;-82
2023/06/17 07:41:54;;;;;;;3.92;2.40;;;;;;;;;;5037585;28;20426;-78
2023/06/17 07:44:20;;;;;;;4.97;2.50;;;;;;;;;;5052426;28;20029;-81
2023/06/17 07:46:45;;;;;;;8.88;2.65;;;;;;;;;;5019202;28;20087;-82
2023/06/17 07:49:11;;;;;;;7.53;3.25;;;;;;;;;;5037156;28;20374;-82
2023/06/17 07:51:36;;;;;;;6.30;3.20;;;;;;;;;;5019343;28;20032;-80
2023/06/17 07:54:04;;;;;;;7.72;2.90;;;;;;;;;;5035712;28;20410;-79
2023/06/17 07:56:29;;;;;;;4.82;2.90;;;;;;;;;;5036847;28;20033;-83
2023/06/17 07:58:55;;;;;;;4.90;1.88;;;;;;;;;;5036928;28;20029;-82
2023/06/17 08:01:22;;;;;;;3.03;1.50;;;;;;;;;;5036819;28;20183;-82
2023/06/17 08:03:47;;;;;;;4.20;1.15;;;;;;;;;;5018999;28;20033;-80
2023/06/17 08:06:16;;;;;;;1.38;1.10;;;;;;;;;;5036847;28;20029;-80
2023/06/17 08:08:41;;;;;;;5.57;1.02;;;;;;;;;;5052265;28;20076;-80
2023/06/17 08:11:07;;;;;;;1.27;1.00;;;;;;;;;;5037173;28;20078;-81
2023/06/17 08:13:33;;;;;;;1.75;0.95;;;;;;;;;;5035339;28;20022;-81
2023/06/17 08:15:58;;;;;;;3.95;1.20;;;;;;;;;;5036224;28;20028;-81
2023/06/17 08:18:24;;;;;;;0.77;0.60;;;;;;;;;;5035205;28;20029;-81
2023/06/17 08:20:49;;;;;;;4.57;0.80;;;;;;;;;;5036476;28;20038;-81
2023/06/17 08:23:15;;;;;;;3.13;1.08;;;;;;;;;;5035406;28;20040;-79
2023/06/17 08:25:41;;;;;;;5.47;0.90;;;;;;;;;;5036286;28;20135;-78
2023/06/17 08:28:25;;;;;;;1.17;0.70;;;;;;;;;;5036135;28;20120;-80
2023/06/17 08:30:51;;;;;;;2.22;0.98;;;;;;;;;;5036569;28;20087;-80
2023/06/17 08:33:17;;;;;;;5.88;1.10;;;;;;;;;;5018377;28;20033;-81
2023/06/17 08:35:42;;;;;;;3.55;1.00;;;;;;;;;;5036549;28;20104;-80
2023/06/17 08:38:08;;;;;;;1.05;0.80;;;;;;;;;;5018251;28;20026;-80
2023/06/17 08:40:33;;;;;;;1.15;0.95;;;;;;;;;;5035943;28;20037;-80
2023/06/17 08:43:02;;;;;;;2.30;1.00;;;;;;;;;;5018034;28;20025;-80
2023/06/17 08:45:31;;;;;;;4.57;1.00;;;;;;;;;;5017681;28;20034;-79
2023/06/17 08:47:57;;;;;;;1.60;1.02;;;;;;;;;;5035768;28;20057;-80
2023/06/17 08:50:24;;;;;;;0.80;0.70;;;;;;;;;;5033985;28;20064;-80
2023/06/17 08:52:50;;;;;;;7.53;0.95;;;;;;;;;;5035632;28;20030;-79
2023/06/17 08:55:15;;;;;;;1.27;0.85;;;;;;;;;;5034229;28;20447;-80
2023/06/17 08:57:40;;;;;;;0.80;0.70;;;;;;;;;;5034592;28;20021;-79
2023/06/17 09:00:10;;;;;;;1.77;0.75;;;;;;;;;;5051044;28;20514;-79
2023/06/17 09:02:36;;;;;;;4.10;1.45;;;;;;;;;;5034372;28;20547;-79
2023/06/17 09:05:02;;;;;;;2.05;1.00;;;;;;;;;;5050887;28;20112;-80
2023/06/17 09:07:28;;;;;;;2.83;0.90;;;;;;;;;;5034413;28;20436;-79
2023/06/17 09:09:56;;;;;;;2.08;1.00;;;;;;;;;;5017611;28;20028;-80
2023/06/17 09:12:25;;;;;;;3.40;1.08;;;;;;;;;;5034990;28;20029;-79
2023/06/17 09:14:53;;;;;;;3.78;0.93;;;;;;;;;;5034365;28;20091;-79
2023/06/17 09:17:29;;;;;;;1.73;1.25;;;;;;;;;;5034080;28;20464;-79
2023/06/17 09:19:55;;;;;;;1.20;0.93;;;;;;;;;;5017805;28;20512;-80
2023/06/17 09:22:20;;;;;;;1.58;0.80;;;;;;;;;;5017480;28;20021;-79
2023/06/17 09:24:46;;;;;;;2.70;0.90;;;;;;;;;;5017390;28;20021;-80
2023/06/17 09:27:22;;;;;;;3.80;1.08;;;;;;;;;;5034713;28;20082;-80
2023/06/17 09:29:48;;;;;;;1.33;1.02;;;;;;;;;;5017292;28;20053;-80
2023/06/17 09:32:13;;;;;;;4.65;1.48;;;;;;;;;;5033846;28;20025;-81
2023/06/17 09:34:47;;;;;;;1.83;1.40;;;;;;;;;;5049780;28;20438;-82
2023/06/17 09:37:14;;;;;;;2.20;1.30;;;;;;;;;;5049960;28;20041;-81
2023/06/17 09:39:39;;;;;;;1.50;1.40;;;;;;;;;;5016957;28;20028;-81
2023/06/17 09:42:08;;;;;;;4.95;1.73;;;;;;;;;;5016948;28;20021;-81
2023/06/17 09:44:36;;;;;;;2.30;1.40;;;;;;;;;;5016971;28;20029;-80
2023/06/17 09:47:06;;;;;;;5.22;1.50;;;;;;;;;;5033493;28;20028;-81
2023/06/17 09:49:32;;;;;;;;;;;;;;;;;;5017503;28;20450;-82
2023/06/17 09:51:58;;;;;;;2.72;1.38;;;;;;;;;;5049887;28;19913;-81
2023/06/17 09:54:23;;;;;;;5.63;1.83;;;;;;;;;;5049839;28;20084;-81
2023/06/17 09:56:50;;;;;;;2.17;1.15;;;;;;;;;;5033187;28;20021;-81
2023/06/17 09:59:18;;;;;;;1.35;1.00;;;;;;;;;;5050113;28;20430;-81
2023/06/17 10:01:44;;;;;;;0.70;0.70;;;;;;;;;;5017021;28;20065;-81
2023/06/17 10:04:10;;;;;;;1.67;1.08;;;;;;;;;;5016639;28;20021;-82
2023/06/17 10:06:37;;;;;;;3.60;1.50;;;;;;;;;;5016667;28;20375;-80
2023/06/17 10:09:04;;;;;;;5.22;1.30;;;;;;;;;;5016733;28;20652;-81
2023/06/17 10:11:31;;;;;;;1.20;1.10;;;;;;;;;;5016580;28;20106;-83
2023/06/17 10:14:02;;;;;;;1.23;0.90;;;;;;;;;;5016570;28;20034;-81
2023/06/17 10:16:30;;;;;;;1.33;0.82;;;;;;;;;;4999185;28;20044;-80
2023/06/17 10:18:56;;;;;;;2.35;0.90;;;;;;;;;;5016518;28;20026;-79
2023/06/17 10:21:23;;;;;;;3.05;1.10;;;;;;;;;;5033787;28;20355;-80
2023/06/17 10:23:49;;;;;;;2.13;1.10;;;;;;;;;;5032677;28;20040;-80
2023/06/17 10:26:15;;;;;;;5.93;1.23;;;;;;;;;;5016370;28;20029;-79
2023/06/17 10:28:52;;;;;;;6.55;1.52;;;;;;;;;;5016276;28;20069;-79
2023/06/17 10:31:24;;;;;;;11.52;4.00;;;;;;;;;;5033767;28;20119;-80
2023/06/17 10:33:51;;;;;;;3.75;2.30;;;;;;;;;;5032990;28;20421;-80
2023/06/17 10:36:17;;;;;;;9.68;2.97;;;;;;;;;;5016234;28;20026;-81
2023/06/17 10:38:43;;;;;;;2.70;1.48;;;;;;;;;;5016171;28;20382;-80
2023/06/17 10:41:09;;;;;;;2.83;1.27;;;;;;;;;;5015678;28;20044;-80
2023/06/17 10:43:36;;;;;;;2.75;1.08;;;;;;;;;;5032621;28;20021;-81
2023/06/17 10:46:01;;;;;;;2.40;1.10;;;;;;;;;;5032398;28;20383;-81
2023/06/17 10:48:32;;;;;;;4.28;2.03;;;;;;;;;;5037733;28;20033;-80
2023/06/17 10:51:02;;;;;;;5.60;1.70;;;;;;;;;;5020271;28;20024;-81
2023/06/17 10:53:32;;;;;;;;;;;;;;;;;;5020220;28;20025;-80
2023/06/17 10:55:58;;;;;;;;;;;;;;;;;;5036783;28;19945;-81
2023/06/17 10:58:29;;;;;;;3.85;2.40;;;;;;;;;;5053017;28;19921;-81
2023/06/17 11:01:13;;;;;;;3.63;2.10;;;;;;;;;;5019928;28;20071;-80
2023/06/17 11:03:39;;;;;;;4.35;1.85;;;;;;;;;;5036338;28;20037;-81
2023/06/17 11:06:05;;;;;;;4.53;1.70;;;;;;;;;;5036414;28;20087;-81
2023/06/17 11:08:35;;;;;;;5.07;1.83;;;;;;;;;;5037417;28;20033;-82
2023/06/17 11:11:10;;;;;;;6.97;2.00;;;;;;;;;;5037552;28;20488;-81
2023/06/17 11:13:40;;;;;;;4.18;2.10;;;;;;;;;;5037230;28;20034;-81
2023/06/17 11:16:05;;;;;;;4.63;2.28;;;;;;;;;;5037237;28;20460;-81
2023/06/17 11:18:34;;;;;;;5.55;1.88;;;;;;;;;;5035958;28;20043;-81
2023/06/17 11:21:00;;;;;;;2.83;1.90;;;;;;;;;;5019621;28;20034;-80
2023/06/17 11:23:26;;;;;;;3.30;2.00;;;;;;;;;;5019201;28;20128;-82
2023/06/17 11:25:52;;;;;;;2.80;2.10;;;;;;;;;;5037026;28;20121;-82
2023/06/17 11:28:18;;;;;;;3.42;1.98;;;;;;;;;;5035629;28;20034;-82
2023/06/17 11:30:44;;;;;;;3.22;2.20;;;;;;;;;;5019387;28;20032;-80
2023/06/17 11:33:09;;;;;;;5.68;2.55;;;;;;;;;;5003262;28;20057;-81
2023/06/17 11:35:35;;;;;;;10.55;2.63;;;;;;;;;;5037226;28;20036;-81
2023/06/17 11:38:02;;;;;;;5.90;2.70;;;;;;;;;;5036560;28;20114;-81
2023/06/17 11:40:27;;;;;;;11.35;3.08;;;;;;;;;;5019665;28;20025;-80
2023/06/17 11:42:52;;;;;;;3.90;2.45;;;;;;;;;;5036851;28;20028;-81
2023/06/17 11:45:20;;;;;;;5.07;2.70;;;;;;;;;;5036638;28;20443;-81
2023/06/17 11:47:45;;;;;;;3.05;2.63;;;;;;;;;;5036793;28;20025;-81
2023/06/17 11:50:11;;;;;;;8.10;2.95;;;;;;;;;;5037084;28;20036;-82
2023/06/17 11:52:36;;;;;;;4.28;2.67;;;;;;;;;;5036322;28;20097;-82
2023/06/17 11:55:03;;;;;;;7.35;2.83;;;;;;;;;;5002881;28;20037;-81
2023/06/17 11:57:28;;;;;;;5.85;2.72;;;;;;;;;;5051855;28;20060;-82
2023/06/17 12:00:04;;;;;;;4.28;2.90;;;;;;;;;;5036757;28;20404;-81
2023/06/17 12:02:30;;;;;;;11.05;2.90;;;;;;;;;;5018877;28;20124;-81
2023/06/17 12:05:00;;;;;;;5.03;2.40;;;;;;;;;;5036651;28;20124;-81
2023/06/17 12:07:26;;;;;;;4.00;2.55;;;;;;;;;;5018293;28;20336;-82
2023/06/17 12:09:53;;;;;;;6.95;2.60;;;;;;;;;;5036375;28;20096;-82
2023/06/17 12:12:46;;;;;;;6.78;1.90;;;;;;;;;;5018691;28;20021;-82
2023/06/17 12:15:15;;;;;;;7.13;2.70;;;;;;;;;;5016866;28;20045;-82
2023/06/17 12:17:40;;;;;;;11.75;2.60;;;;;;;;;;5019472;28;20047;-82
2023/06/17 12:20:11;;;;;;;5.15;2.45;;;;;;;;;;5036203;28;20514;-82
2023/06/17 12:22:37;;;;;;;3.20;2.50;;;;;;;;;;5051567;28;20033;-81
2023/06/17 12:25:02;;;;;;;7.82;2.30;;;;;;;;;;5018406;28;20363;-83
2023/06/17 12:27:29;;;;;;;4.85;2.25;;;;;;;;;;5018410;28;20136;-82
2023/06/17 12:29:55;;;;;;;4.55;2.25;;;;;;;;;;5035979;28;20033;-81
2023/06/17 12:32:20;;;;;;;2.40;2.20;;;;;;;;;;5035043;28;20037;-81
2023/06/17 12:34:46;;;;;;;5.75;2.40;;;;;;;;;;5036404;28;20043;-82
2023/06/17 12:37:11;;;;;;;3.60;2.45;;;;;;;;;;5034482;28;20021;-81
2023/06/17 12:39:37;;;;;;;4.38;2.40;;;;;;;;;;5051228;28;20022;-82
2023/06/17 12:42:02;;;;;;;4.03;2.40;;;;;;;;;;5017984;28;20017;-82
2023/06/17 12:44:28;;;;;;;6.03;2.60;;;;;;;;;;5034313;28;20032;-82
2023/06/17 12:46:54;;;;;;;2.60;2.40;;;;;;;;;;5018231;28;20057;-82
2023/06/17 12:49:19;;;;;;;7.00;2.65;;;;;;;;;;5034250;28;20052;-80
2023/06/17 12:51:44;;;;;;;3.13;2.13;;;;;;;;;;5017972;28;20135;-82
2023/06/17 12:54:10;;;;;;;4.80;2.35;;;;;;;;;;5035768;28;20026;-82
2023/06/17 12:56:35;;;;;;;7.53;2.50;;;;;;;;;;5001356;28;20040;-82
2023/06/17 12:59:01;;;;;;;3.55;2.45;;;;;;;;;;5017689;28;20022;-82
2023/06/17 13:01:26;;;;;;;8.90;2.35;;;;;;;;;;5035281;28;20444;-82
2023/06/17 13:03:51;;;;;;;6.20;2.63;;;;;;;;;;5035031;28;20072;-82
2023/06/17 13:06:19;;;;;;;4.35;2.60;;;;;;;;;;5050621;28;20040;-83
2023/06/17 13:08:44;;;;;;;3.20;2.60;;;;;;;;;;5035315;28;20025;-81
2023/06/17 13:11:11;;;;;;;5.28;2.60;;;;;;;;;;5035169;28;20028;-82
2023/06/17 13:13:37;;;;;;;2.42;2.22;;;;;;;;;;5035499;28;20445;-82
2023/06/17 13:16:03;;;;;;;4.45;2.38;;;;;;;;;;5034002;28;20464;-81
2023/06/17 13:18:29;;;;;;;3.00;2.33;;;;;;;;;;5017467;28;20038;-82
2023/06/17 13:20:55;;;;;;;7.65;2.47;;;;;;;;;;5017409;28;20033;-82
2023/06/17 13:23:20;;;;;;;3.33;2.53;;;;;;;;;;5001464;28;20033;-82
2023/06/17 13:25:46;;;;;;;6.28;2.80;;;;;;;;;;5034768;28;20374;-82
2023/06/17 13:28:11;;;;;;;5.13;2.90;;;;;;;;;;5033527;28;20041;-83
2023/06/17 13:30:37;;;;;;;4.18;2.70;;;;;;;;;;5017211;28;20075;-82
2023/06/17 13:33:02;;;;;;;4.75;2.83;;;;;;;;;;5033585;28;20281;-81
2023/06/17 13:35:28;;;;;;;4.25;2.90;;;;;;;;;;5033386;28;20033;-82
2023/06/17 13:37:54;;;;;;;5.35;2.90;;;;;;;;;;5033367;28;20033;-82
2023/06/17 13:40:20;;;;;;;5.18;2.63;;;;;;;;;;5034594;28;20126;-82
2023/06/17 13:42:46;;;;;;;3.40;2.95;;;;;;;;;;5034455;28;20033;-81
2023/06/17 13:45:11;;;;;;;8.07;3.00;;;;;;;;;;5033039;28;20033;-83
2023/06/17 13:47:37;;;;;;;5.10;3.13;;;;;;;;;;5049773;28;20126;-82
2023/06/17 13:50:03;;;;;;;6.55;3.13;;;;;;;;;;5049786;28;20037;-82
2023/06/17 13:52:28;;;;;;;8.48;3.58;;;;;;;;;;5033148;28;20033;-80
2023/06/17 13:54:54;;;;;;;6.85;3.53;;;;;;;;;;5034124;28;20029;-83
2023/06/17 13:57:19;;;;;;;7.57;3.38;;;;;;;;;;5049390;28;20036;-81
2023/06/17 13:59:46;;;;;;;7.32;3.65;;;;;;;;;;5034144;28;20359;-81
2023/06/17 14:02:11;;;;;;;8.82;3.60;;;;;;;;;;5049180;28;20084;-82
2023/06/17 14:04:36;;;;;;;5.00;3.40;;;;;;;;;;5033222;28;20049;-82
2023/06/17 14:07:02;;;;;;;5.90;3.53;;;;;;;;;;5032926;28;20021;-82
2023/06/17 14:09:27;;;;;;;4.60;3.28;;;;;;;;;;5032811;28;20025;-82
2023/06/17 14:11:53;;;;;;;9.38;3.83;;;;;;;;;;5032785;28;20029;-82
2023/06/17 14:14:18;;;;;;;7.90;3.70;;;;;;;;;;5016543;28;20116;-82
2023/06/17 14:16:44;;;;;;;8.73;3.67;;;;;;;;;;5032521;28;20029;-81
2023/06/17 14:19:09;;;;;;;5.60;3.50;;;;;;;;;;5034181;28;20112;-81
2023/06/17 14:21:36;;;;;;;5.07;3.60;;;;;;;;;;5034085;28;20034;-82
2023/06/17 14:24:09;;;;;;;10.30;3.67;;;;;;;;;;5016088;28;20036;-82
2023/06/17 14:26:38;;;;;;;8.18;3.90;;;;;;;;;;5033697;28;20083;-82
2023/06/17 14:29:05;;;;;;;9.40;3.85;;;;;;;;;;5034077;28;20107;-82
2023/06/17 14:31:30;;;;;;;9.10;4.10;;;;;;;;;;5015744;28;20371;-82
2023/06/17 14:33:57;;;;;;;6.22;3.75;;;;;;;;;;5032935;28;20033;-82
2023/06/17 14:36:23;;;;;;;6.03;3.78;;;;;;;;;;5016617;28;20037;-82
2023/06/17 14:38:49;;;;;;;5.82;3.95;;;;;;;;;;5032922;28;20021;-82